American Falls, ID (83211)

6:23 AM MST on February 07, 2016 (GMT -0700)
The Hood | | Change Station
CLOSE
Current Station
Personal Weather Station
Location: Rockland, ID
Elevation: 4560 ft
Nearby Weather Stations

Elev 4560 ft 42.57 °N, 112.88 °W | Updated 15 minutes ago

Overcast
Overcast
29.5 °F
Feels Like 26 °F
N
3.7
Wind Variable Wind from SSE

Today
High -- | Low -- °F
--% Chance of Precip.
Yesterday
High -- | Low -- °F
Precip. -- in
Pressure 30.56 in
Visibility 10.0 miles
Clouds Mostly Cloudy 2700 ft
Windchill 26 °F
Dew Point 25 °F
Humidity 82%
Rainfall 0.00 in
Snow Depth Not available.
7:39 AM 5:52 PM
Waning Crescent, 2% visible
METAR KPIH 071253Z AUTO 19005KT 10SM BKN027 M02/M04 A3049 RMK AO2 SLP348 T10171044
Pressure 30.56 in
Visibility 10.0 miles
Clouds Mostly Cloudy 2700 ft
Windchill 26 °F
Dew Point 25 °F
Humidity 82%
Rainfall 0.00 in
Snow Depth Not available.
7:39 AM 5:52 PM
Waning Crescent, 2% visible
METAR KPIH 071253Z AUTO 19005KT 10SM BKN027 M02/M04 A3049 RMK AO2 SLP348 T10171044

10-Day Weather Forecast

Almanac

Astronomy

Feb. 07, 2016 Rise Set
Actual Time
Civil Twilight
Nautical Twilight
Astronomical Twilight
Moon
Length of Visible Light
Length of Day
Tomorrow will be .
, % of the Moon is Illuminated

Today's Extremes

State Highs State Lows

Community

WunderPhotos

Upload Photos

1,891,190 photos uploaded!

WunderBlog® & News

Nearby

Air Quality

  Air Quality AQ Index Pollutant
Not available.

Snow Depth

Station Depth Elevation

Earthquake Activity

City Distance Mag. Time & Date
Minimum magnitude displayed is 2.5.

Coastal Water Temperatures

Place Temperature

Stations

Nearby Weather Stations

Station Location Temp. Windchill Dew Point Humidity Wind Precip. Elev Updated Type
                   

Watches & Warnings

There are currently no watches in effect.